Terminal Aerodrome Forecast
Issued by NWS Pittsburgh, PA

Current Version | Previous Version | Text Only | Print | Product List | Glossary Off
Versions: 1 2 3 4 5 6 7 8 9 10 11 12 13 14 15 16 17 18 19 20 21 22 23 24 25 26 27 28 29 30 31 32 33 34 35 36 37

000
FTUS41 KPBZ 142200 AAC
TAFPIT
TAF AMD
KPIT 142258Z 1423/1524 20013G18KT P6SM BKN060
     FM150300 25012KT 3SM -RA OVC012
     FM150800 30012KT 3SM -SHRA OVC010
     FM151500 33015G25KT 3SM -SHSN OVC010=

USA.gov is the U.S. government's official web portal to all federal, state and local government web resources and services.